Time;durP1;ratioP1;P1;durP2;ratioP2;P2;SDS_P1;SDS_P2;PMS_P1;PMS_P2;Temp;Humidity;BMP_temperature;BMP_pressure;BME280_temperature;BME280_humidity;BME280_pressure;Samples;Min_cycle;Max_cycle;Signal;HPM_P1;HPM_P2
2022/09/09 01:20:16;;;;;;;15.13;12.63;;;15.10;1.00;;;;;;954080;25;21602;-85
2022/09/09 01:26:21;;;;;;;17.67;13.20;;;15.10;1.00;;;;;;5045949;28;20431;-85
2022/09/09 01:28:57;;;;;;;15.00;11.97;;;15.00;1.00;;;;;;4975228;28;20495;-88
2022/09/09 01:31:54;;;;;;;15.10;11.40;;;15.10;1.00;;;;;;5010268;28;20448;-89
2022/09/09 01:37:25;;;;;;;16.47;13.67;;;15.10;1.00;;;;;;4981694;28;20461;-89
2022/09/09 01:39:52;;;;;;;14.13;12.17;;;15.00;1.00;;;;;;5039519;28;20449;-87
2022/09/09 01:42:19;;;;;;;16.53;12.83;;;15.00;1.00;;;;;;5054306;28;20444;-83
2022/09/09 01:44:48;;;;;;;16.37;12.70;;;15.00;1.00;;;;;;5044317;28;20436;-86
2022/09/09 01:47:18;;;;;;;19.00;13.30;;;15.00;1.00;;;;;;5049109;28;20427;-88
2022/09/09 01:49:47;;;;;;;15.07;12.03;;;15.00;1.00;;;;;;5049677;28;20566;-86
2022/09/09 01:52:16;;;;;;;15.83;12.00;;;14.90;1.00;;;;;;5034950;28;20428;-88
2022/09/09 01:54:56;;;;;;;;;;;;;;;;;;;;;
2022/09/09 01:57:28;;;;;;;15.03;9.90;;;14.80;1.00;;;;;;5041595;28;41438;-88
2022/09/09 02:00:26;;;;;;;13.13;10.30;;;14.80;1.00;;;;;;5046938;28;20479;-85
2022/09/09 02:03:18;;;;;;;13.83;11.47;;;14.80;1.00;;;;;;5052727;28;20451;-87
2022/09/09 02:05:59;;;;;;;15.23;10.87;;;14.80;1.00;;;;;;5065766;28;20459;-87
2022/09/09 02:08:47;;;;;;;14.40;11.60;;;14.70;1.00;;;;;;5017500;28;20536;-87
2022/09/09 02:11:25;;;;;;;14.53;11.07;;;14.70;1.00;;;;;;5037523;28;20429;-87
2022/09/09 02:14:12;;;;;;;14.27;11.10;;;14.60;1.00;;;;;;5036678;28;20404;-87
2022/09/09 02:16:59;;;;;;;13.53;10.40;;;14.60;1.00;;;;;;5059494;28;20503;-88
2022/09/09 02:19:48;;;;;;;13.67;10.73;;;14.60;1.00;;;;;;5024506;28;21124;-88
2022/09/09 02:28:37;;;;;;;14.53;10.50;;;14.50;1.00;;;;;;5040767;28;20484;-88
2022/09/09 02:31:17;;;;;;;13.07;9.97;;;14.50;1.00;;;;;;4955411;28;20485;-85
2022/09/09 02:34:00;;;;;;;12.17;10.27;;;14.60;1.00;;;;;;4993199;28;20462;-87
2022/09/09 02:39:19;;;;;;;16.13;13.20;;;14.60;1.00;;;;;;5017008;28;20460;-87
2022/09/09 02:41:48;;;;;;;12.90;9.80;;;14.60;1.00;;;;;;5015240;28;20622;-87
2022/09/09 02:44:28;;;;;;;11.97;10.37;;;14.60;1.00;;;;;;5036832;28;20449;-87
2022/09/09 02:47:25;;;;;;;15.90;10.90;;;14.60;1.00;;;;;;5040092;28;20436;-87
2022/09/09 02:50:09;;;;;;;13.00;9.53;;;14.60;1.00;;;;;;5034081;28;20487;-88
2022/09/09 02:52:49;;;;;;;14.33;10.70;;;14.60;1.00;;;;;;5027596;28;21480;-87
2022/09/09 02:55:25;;;;;;;14.27;11.83;;;14.50;1.00;;;;;;5023640;28;20420;-89
2022/09/09 02:58:07;;;;;;;14.03;10.50;;;14.40;1.00;;;;;;5022031;28;20432;-88
2022/09/09 03:00:37;;;;;;;15.33;11.23;;;14.50;1.00;;;;;;5029136;28;20436;-87
2022/09/09 03:03:08;;;;;;;13.50;11.10;;;14.50;1.00;;;;;;5025163;28;20552;-88
2022/09/09 03:05:47;;;;;;;13.97;10.90;;;14.60;1.00;;;;;;5023168;28;20437;-87
2022/09/09 03:11:09;;;;;;;13.37;10.47;;;14.50;1.00;;;;;;5020824;28;20481;-87
2022/09/09 03:13:39;;;;;;;13.40;10.60;;;14.40;1.00;;;;;;5028999;28;20429;-86
2022/09/09 03:16:08;;;;;;;13.77;10.10;;;14.40;1.00;;;;;;5025766;28;21386;-85
2022/09/09 03:18:39;;;;;;;14.47;10.63;;;14.40;1.00;;;;;;5043511;28;20503;-87
2022/09/09 03:21:15;;;;;;;14.53;10.50;;;14.40;1.00;;;;;;5041936;27;20545;-86
2022/09/09 03:23:48;;;;;;;14.20;10.03;;;14.30;1.00;;;;;;5042144;28;20462;-87
2022/09/09 03:26:19;;;;;;;12.13;9.80;;;14.40;1.00;;;;;;5022255;28;20428;-86
2022/09/09 03:31:36;;;;;;;13.27;10.20;;;14.30;1.00;;;;;;5019808;28;20474;-87
2022/09/09 03:34:19;;;;;;;;;;;;;;;;;;;;;
2022/09/09 03:36:57;;;;;;;16.27;10.50;;;14.30;1.00;;;;;;5052652;28;50244;-87
2022/09/09 03:39:27;;;;;;;16.20;9.27;;;14.30;1.00;;;;;;5052793;28;20435;-88
2022/09/09 03:41:57;;;;;;;13.43;10.20;;;14.30;1.00;;;;;;5063830;28;20594;-88
2022/09/09 03:44:57;;;;;;;14.13;9.87;;;14.30;1.00;;;;;;5058642;28;20421;-88
2022/09/09 03:47:28;;;;;;;14.10;10.73;;;14.30;1.00;;;;;;5044751;28;20549;-87
2022/09/09 03:50:18;;;;;;;13.37;10.07;;;14.30;1.00;;;;;;5071299;28;20419;-88
2022/09/09 03:53:09;;;;;;;14.63;11.07;;;14.30;1.00;;;;;;5075014;28;20445;-84
2022/09/09 03:55:38;;;;;;;12.87;9.90;;;14.20;1.00;;;;;;5039727;28;20492;-87
2022/09/09 03:58:37;;;;;;;14.80;10.33;;;14.20;1.00;;;;;;4993492;28;20438;-88
2022/09/09 04:02:00;;;;;;;;;;;;;;;;;;;;;
2022/09/09 04:04:29;;;;;;;13.13;10.40;;;14.20;1.00;;;;;;5054818;28;50349;-87
2022/09/09 04:07:10;;;;;;;;;;;;;;;;;;;;;
2022/09/09 04:13:28;;;;;;;13.10;11.23;;;14.20;1.00;;;;;;5025856;28;20426;-88
2022/09/09 04:15:59;;;;;;;16.00;12.73;;;14.10;1.00;;;;;;4994333;28;20458;-86
2022/09/09 04:18:48;;;;;;;15.77;12.70;;;14.10;1.00;;;;;;4993680;28;20453;-88
2022/09/09 04:21:48;;;;;;;15.50;12.33;;;14.00;1.00;;;;;;4988629;28;20473;-85
2022/09/09 04:24:18;;;;;;;17.60;13.27;;;14.00;1.00;;;;;;5045328;28;20468;-84
2022/09/09 04:26:49;;;;;;;17.63;12.50;;;14.00;1.00;;;;;;5040506;28;20482;-79
2022/09/09 04:29:16;;;;;;;15.70;13.30;;;13.90;1.00;;;;;;5034447;28;20451;-75
2022/09/09 04:31:52;;;;;;;15.97;13.10;;;13.90;1.00;;;;;;5039640;28;22121;-77
2022/09/09 04:34:19;;;;;;;14.60;12.03;;;13.90;1.00;;;;;;5049165;28;20544;-78
2022/09/09 04:36:47;;;;;;;15.33;11.87;;;13.90;1.00;;;;;;5044763;28;20437;-81
2022/09/09 04:39:17;;;;;;;14.00;11.20;;;13.90;1.00;;;;;;5024311;28;20452;-80
2022/09/09 04:41:52;;;;;;;14.83;11.20;;;13.90;1.00;;;;;;5060381;28;20451;-80
2022/09/09 04:44:22;;;;;;;13.07;10.97;;;13.90;1.00;;;;;;5037599;28;20518;-76
2022/09/09 04:46:50;;;;;;;13.20;11.03;;;13.90;1.00;;;;;;5041187;28;20523;-77
2022/09/09 04:49:17;;;;;;;16.60;11.20;;;14.00;1.00;;;;;;5010750;28;20453;-78
2022/09/09 04:51:53;;;;;;;14.10;10.37;;;14.00;1.00;;;;;;5038570;28;20427;-77
2022/09/09 04:54:21;;;;;;;14.27;10.87;;;14.00;1.00;;;;;;5014363;28;20486;-77
2022/09/09 04:56:50;;;;;;;14.03;10.80;;;14.00;1.00;;;;;;5027667;28;20483;-79
2022/09/09 04:59:18;;;;;;;13.50;9.93;;;14.10;1.00;;;;;;5039483;28;20440;-77
2022/09/09 05:01:49;;;;;;;12.60;10.73;;;14.10;1.00;;;;;;5036280;28;20448;-76
2022/09/09 05:04:16;;;;;;;13.40;11.07;;;14.10;1.00;;;;;;5031549;28;20498;-78
2022/09/09 05:06:45;;;;;;;13.17;10.30;;;14.10;1.00;;;;;;5045538;28;20479;-80
2022/09/09 05:09:13;;;;;;;12.67;9.80;;;14.20;1.00;;;;;;5030317;28;20473;-79
2022/09/09 05:11:40;;;;;;;13.13;10.13;;;14.20;1.00;;;;;;5038114;28;20457;-77
2022/09/09 05:14:11;;;;;;;15.93;10.70;;;14.30;1.00;;;;;;5041002;28;20548;-78
2022/09/09 05:16:38;;;;;;;13.93;10.57;;;14.30;1.00;;;;;;5038075;28;20480;-77
2022/09/09 05:19:07;;;;;;;11.43;9.30;;;14.30;1.00;;;;;;5034704;28;20550;-78
2022/09/09 05:21:35;;;;;;;13.67;9.93;;;14.40;1.00;;;;;;5053616;28;20463;-76
2022/09/09 05:24:01;;;;;;;14.23;9.87;;;14.40;1.00;;;;;;5054051;28;20474;-76
2022/09/09 05:26:29;;;;;;;11.70;10.40;;;14.50;1.00;;;;;;5066087;28;20463;-76
2022/09/09 05:28:56;;;;;;;10.77;8.70;;;14.50;1.00;;;;;;5032574;28;20452;-78
2022/09/09 05:31:27;;;;;;;12.77;9.90;;;14.50;1.00;;;;;;5058619;28;20428;-79
2022/09/09 05:33:54;;;;;;;12.27;8.80;;;14.60;1.00;;;;;;5060683;28;20559;-79
2022/09/09 05:36:23;;;;;;;14.87;9.97;;;14.70;1.00;;;;;;5054678;28;20476;-77
2022/09/09 05:38:50;;;;;;;19.50;17.27;;;14.70;1.00;;;;;;5061527;28;20459;-81
2022/09/09 05:41:19;;;;;;;14.43;9.93;;;14.80;1.00;;;;;;5060165;28;20559;-79
2022/09/09 05:43:48;;;;;;;13.60;9.37;;;14.70;1.00;;;;;;5061398;28;20460;-79
2022/09/09 05:46:17;;;;;;;13.40;9.27;;;14.80;1.00;;;;;;5049842;28;20493;-78
2022/09/09 05:48:49;;;;;;;14.83;9.43;;;14.80;1.00;;;;;;5057078;28;20551;-79
2022/09/09 05:51:18;;;;;;;12.40;9.03;;;14.90;1.00;;;;;;5059338;28;21093;-79
2022/09/09 05:53:51;;;;;;;14.00;9.37;;;14.90;1.00;;;;;;5052287;28;20456;-78
2022/09/09 05:56:19;;;;;;;11.10;7.70;;;15.00;1.00;;;;;;5058414;28;20439;-77
2022/09/09 05:58:56;;;;;;;13.53;8.43;;;14.90;1.00;;;;;;5040375;28;20459;-81
2022/09/09 06:01:27;;;;;;;13.93;8.47;;;14.90;1.00;;;;;;5067379;28;20472;-78
2022/09/09 06:03:54;;;;;;;11.10;8.37;;;14.90;1.00;;;;;;5048039;28;22801;-81
2022/09/09 06:06:27;;;;;;;10.93;7.70;;;14.90;1.00;;;;;;5055644;28;20455;-80
2022/09/09 06:09:09;;;;;;;11.87;7.80;;;14.90;1.00;;;;;;5060538;28;20593;-86
2022/09/09 06:11:40;;;;;;;14.83;7.97;;;15.00;1.00;;;;;;5033049;28;21358;-85
2022/09/09 06:14:10;;;;;;;12.50;7.63;;;15.10;1.00;;;;;;5056639;28;20408;-86
2022/09/09 06:19:14;;;;;;;11.43;7.07;;;15.20;1.00;;;;;;2412626;25;20411;-85
2022/09/09 06:21:42;;;;;;;13.87;8.43;;;15.20;1.00;;;;;;5065426;28;20465;-84
2022/09/09 06:24:19;;;;;;;12.53;8.20;;;15.30;1.00;;;;;;5049371;28;20467;-84
2022/09/09 06:26:48;;;;;;;13.57;7.63;;;15.30;1.00;;;;;;5080830;28;20620;-83
2022/09/09 06:29:36;;;;;;;12.17;6.90;;;15.30;1.00;;;;;;5072197;27;20566;-84
2022/09/09 06:32:08;;;;;;;13.47;8.00;;;15.40;1.00;;;;;;5045122;28;20428;-80
2022/09/09 06:34:36;;;;;;;9.40;6.53;;;15.50;1.00;;;;;;5066871;28;20431;-80
2022/09/09 06:37:10;;;;;;;10.63;6.93;;;15.60;1.00;;;;;;5046409;28;20480;-82
2022/09/09 06:39:40;;;;;;;10.50;6.63;;;15.80;1.00;;;;;;5054168;27;20463;-86
2022/09/09 06:46:49;;;;;;;10.23;6.80;;;16.10;1.00;;;;;;5032406;28;20965;-88
2022/09/09 06:58:10;;;;;;;9.73;6.50;;;16.60;1.00;;;;;;5896537;22;20436;-83
2022/09/09 07:00:38;;;;;;;12.30;5.97;;;16.80;1.00;;;;;;5083143;27;20419;-83
2022/09/09 07:03:07;;;;;;;10.03;5.33;;;16.90;1.00;;;;;;5051111;28;20535;-83
2022/09/09 07:05:37;;;;;;;8.33;4.47;;;16.90;1.00;;;;;;5087155;28;20465;-82
2022/09/09 07:08:05;;;;;;;11.57;5.67;;;16.90;1.00;;;;;;5077595;28;20446;-85
2022/09/09 07:10:37;;;;;;;11.27;5.20;;;17.00;1.00;;;;;;5051737;28;20903;-82
2022/09/09 07:13:28;;;;;;;12.60;5.47;;;17.10;1.00;;;;;;5052448;28;20471;-82
2022/09/09 07:16:17;;;;;;;14.50;6.40;;;17.20;1.00;;;;;;5089526;28;20459;-81
2022/09/09 07:18:50;;;;;;;11.57;5.23;;;17.40;1.00;;;;;;5068919;28;20578;-82
2022/09/09 07:21:20;;;;;;;15.60;6.37;;;17.40;1.00;;;;;;5077712;28;20449;-83
2022/09/09 07:23:49;;;;;;;8.90;4.23;;;17.60;1.00;;;;;;5088606;28;20481;-84
2022/09/09 07:26:31;;;;;;;10.87;4.03;;;17.70;1.00;;;;;;5081884;28;20535;-82
2022/09/09 07:28:58;;;;;;;9.23;4.60;;;17.90;1.00;;;;;;5084891;28;20578;-83
2022/09/09 07:31:31;;;;;;;10.87;4.30;;;18.00;1.00;;;;;;5073852;28;20455;-84
2022/09/09 07:34:00;;;;;;;9.50;4.80;;;18.00;1.00;;;;;;5088525;28;20486;-81
2022/09/09 07:36:29;;;;;;;9.23;5.23;;;18.10;1.00;;;;;;5079334;28;20452;-78
2022/09/09 07:38:58;;;;;;;13.73;5.30;;;18.20;1.00;;;;;;5079552;28;20467;-79
2022/09/09 07:41:27;;;;;;;9.17;4.00;;;18.40;1.00;;;;;;5078673;28;20918;-78
2022/09/09 07:43:55;;;;;;;15.00;4.53;;;18.50;1.00;;;;;;5075948;28;21340;-79
2022/09/09 07:46:23;;;;;;;9.63;4.07;;;18.60;1.00;;;;;;5080489;28;20617;-77
2022/09/09 07:48:55;;;;;;;9.47;4.00;;;18.80;1.00;;;;;;5077633;28;21660;-78
2022/09/09 07:51:25;;;;;;;8.53;3.80;;;18.90;1.00;;;;;;5067610;28;20638;-77
2022/09/09 07:53:57;;;;;;;8.13;3.43;;;19.10;1.00;;;;;;5070211;28;20494;-78
2022/09/09 07:56:24;;;;;;;7.67;3.23;;;19.20;1.00;;;;;;5066396;28;20451;-77
2022/09/09 07:58:52;;;;;;;8.10;3.30;;;19.30;1.00;;;;;;5074379;28;20456;-79
2022/09/09 08:01:21;;;;;;;8.60;3.70;;;19.30;1.00;;;;;;5054731;28;20480;-80
2022/09/09 08:03:53;;;;;;;7.47;3.60;;;19.30;1.00;;;;;;5058150;28;20459;-78
2022/09/09 08:06:22;;;;;;;8.47;3.17;;;19.20;1.00;;;;;;5047555;28;20469;-78
2022/09/09 08:08:55;;;;;;;6.80;3.10;;;19.20;1.00;;;;;;5056416;28;20456;-79
2022/09/09 08:11:24;;;;;;;9.00;3.23;;;19.40;1.00;;;;;;5055283;28;20474;-78
2022/09/09 08:13:52;;;;;;;6.27;2.70;;;19.50;1.00;;;;;;5029863;28;20465;-77
2022/09/09 08:16:22;;;;;;;13.33;4.47;;;19.50;1.00;;;;;;5059646;28;20456;-77
2022/09/09 08:18:50;;;;;;;13.60;5.63;;;19.60;1.00;;;;;;5059160;28;21007;-77
2022/09/09 08:21:21;;;;;;;7.73;3.00;;;19.80;1.00;;;;;;5057478;28;20850;-78
2022/09/09 08:23:53;;;;;;;6.57;2.97;;;19.90;1.00;;;;;;5059834;28;20487;-79
2022/09/09 08:27:18;;;;;;;6.20;2.80;;;20.00;1.00;;;;;;5067035;28;20809;-83
2022/09/09 08:33:21;;;;;;;7.07;3.10;;;20.00;1.00;;;;;;5020227;28;20490;-82
2022/09/09 08:36:20;;;;;;;8.37;3.10;;;20.20;1.00;;;;;;5068743;28;20427;-81
2022/09/09 08:38:54;;;;;;;7.40;3.30;;;20.40;1.00;;;;;;5090383;28;20446;-87
2022/09/09 08:45:02;;;;;;;8.43;3.43;;;20.80;1.00;;;;;;4979159;28;20595;-84
2022/09/09 08:47:51;;;;;;;6.60;2.60;;;20.90;1.00;;;;;;5072045;28;20475;-80
2022/09/09 08:50:31;;;;;;;7.93;2.83;;;20.80;1.00;;;;;;5079140;28;20519;-81
2022/09/09 08:53:08;;;;;;;7.73;3.27;;;20.80;1.00;;;;;;5089961;28;20467;-82
2022/09/09 08:55:49;;;;;;;7.43;2.70;;;20.90;1.00;;;;;;5084721;28;20467;-82
2022/09/09 08:58:19;;;;;;;9.23;3.83;;;20.90;1.00;;;;;;5089777;28;20524;-77
2022/09/09 09:01:07;;;;;;;6.77;3.10;;;21.10;1.00;;;;;;5092960;28;20416;-78
2022/09/09 09:03:49;;;;;;;13.30;3.60;;;21.10;1.00;;;;;;5092712;28;20433;-82
2022/09/09 09:06:30;;;;;;;9.30;3.97;;;21.30;1.00;;;;;;5092087;28;20471;-83
2022/09/09 09:09:09;;;;;;;12.17;6.40;;;21.50;1.00;;;;;;5091535;28;20554;-83
2022/09/09 09:11:39;;;;;;;6.47;3.07;;;21.70;1.00;;;;;;5092869;27;20557;-81
2022/09/09 09:14:13;;;;;;;7.57;3.77;;;21.80;1.00;;;;;;5092697;28;20434;-81
2022/09/09 09:16:52;;;;;;;8.57;2.60;;;22.10;1.00;;;;;;5085745;28;20471;-81
2022/09/09 09:19:22;;;;;;;8.37;3.37;;;22.50;1.00;;;;;;5090941;28;20451;-82
2022/09/09 09:21:55;;;;;;;10.30;2.90;;;23.20;1.00;;;;;;5092872;27;20427;-83
2022/09/09 09:24:36;;;;;;;7.43;2.43;;;24.00;1.00;;;;;;5095000;28;20466;-82
2022/09/09 09:27:22;;;;;;;7.07;4.13;;;24.90;1.00;;;;;;5068710;28;20479;-85
2022/09/09 09:29:59;;;;;;;9.00;2.30;;;25.50;1.00;;;;;;5095574;28;20537;-83
2022/09/09 09:32:34;;;;;;;8.97;2.80;;;26.50;1.00;;;;;;5092386;28;20422;-83
2022/09/09 09:35:08;;;;;;;8.13;2.67;;;27.60;1.00;;;;;;5095893;27;20458;-83
2022/09/09 09:37:36;;;;;;;6.70;2.30;;;27.90;1.00;;;;;;5094496;28;20576;-84
2022/09/09 09:40:11;;;;;;;6.23;2.30;;;28.80;1.00;;;;;;5085043;28;20447;-83
2022/09/09 09:42:52;;;;;;;8.10;2.53;;;29.90;1.00;;;;;;5087741;27;20477;-83
2022/09/09 09:45:31;;;;;;;9.33;3.27;;;30.40;1.00;;;;;;5060534;28;20456;-79
2022/09/09 09:48:04;;;;;;;5.97;1.80;;;31.00;1.00;;;;;;5069619;28;21246;-81
2022/09/09 09:50:32;;;;;;;8.10;1.80;;;31.70;1.00;;;;;;5060683;28;20999;-81
2022/09/09 09:53:09;;;;;;;6.70;2.20;;;32.20;1.00;;;;;;5092248;28;21410;-83
2022/09/09 09:55:56;;;;;;;5.50;2.70;;;32.40;1.00;;;;;;5094479;27;20473;-79
2022/09/09 09:58:36;;;;;;;7.57;2.63;;;32.50;1.00;;;;;;5098160;28;20512;-89
2022/09/09 10:01:09;;;;;;;5.27;2.20;;;33.00;1.00;;;;;;5089481;28;20970;-86
2022/09/09 10:03:40;;;;;;;7.13;2.00;;;33.20;1.00;;;;;;5073457;28;20464;-81
2022/09/09 10:06:09;;;;;;;7.13;2.07;;;32.90;1.00;;;;;;5078669;28;20450;-82
2022/09/09 10:08:49;;;;;;;5.80;2.47;;;33.30;1.00;;;;;;5095739;27;20516;-80
2022/09/09 10:11:35;;;;;;;6.60;1.97;;;33.20;1.00;;;;;;5096055;27;20482;-82
2022/09/09 10:14:17;;;;;;;6.13;1.80;;;34.20;1.00;;;;;;5091699;28;20919;-82
2022/09/09 10:17:04;;;;;;;7.23;1.97;;;33.40;1.00;;;;;;5076623;28;20427;-79
2022/09/09 10:19:34;;;;;;;6.27;2.07;;;31.70;1.00;;;;;;5090472;28;20530;-80
2022/09/09 10:22:22;;;;;;;6.93;2.07;;;31.10;1.00;;;;;;5082748;28;20463;-78
2022/09/09 10:25:18;;;;;;;9.10;2.03;;;31.40;1.00;;;;;;5086654;28;20436;-81
2022/09/09 10:28:02;;;;;;;5.87;1.90;;;30.90;1.00;;;;;;5080370;28;20435;-79
2022/09/09 10:30:50;;;;;;;6.57;2.40;;;30.60;1.00;;;;;;5079079;28;20432;-84
2022/09/09 10:33:27;;;;;;;7.40;2.47;;;30.30;1.00;;;;;;5079609;28;20411;-85
2022/09/09 10:36:05;;;;;;;6.63;2.00;;;30.00;1.00;;;;;;5088943;28;20511;-81
2022/09/09 10:38:47;;;;;;;5.30;2.10;;;29.50;1.00;;;;;;5093954;27;21146;-84
2022/09/09 10:41:24;;;;;;;5.43;1.60;;;29.10;1.00;;;;;;5070193;28;20628;-85
2022/09/09 10:44:27;;;;;;;5.93;2.20;;;30.10;1.00;;;;;;5082012;28;20465;-84
2022/09/09 10:47:17;;;;;;;6.27;2.13;;;31.20;1.00;;;;;;5073388;28;20434;-84
2022/09/09 10:50:06;;;;;;;8.03;2.50;;;30.90;1.00;;;;;;5082477;27;20411;-84
2022/09/09 10:52:38;;;;;;;5.50;1.80;;;29.80;1.00;;;;;;5089376;28;20852;-83
2022/09/09 10:55:14;;;;;;;7.07;4.10;;;28.80;1.00;;;;;;5066206;28;20416;-83
2022/09/09 10:57:49;;;;;;;8.20;2.53;;;28.70;1.00;;;;;;5087636;28;20426;-87
2022/09/09 11:00:24;;;;;;;7.43;3.30;;;28.40;1.00;;;;;;5088293;28;20401;-89
2022/09/09 11:02:56;;;;;;;5.70;1.90;;;29.60;1.00;;;;;;5073268;28;20462;-80
2022/09/09 11:05:36;;;;;;;6.17;2.03;;;31.40;1.00;;;;;;5058129;28;20420;-82
2022/09/09 11:08:08;;;;;;;4.87;1.60;;;33.00;1.00;;;;;;5064369;28;20418;-80
2022/09/09 11:10:48;;;;;;;4.90;1.70;;;34.50;1.00;;;;;;5056173;28;20469;-78
2022/09/09 11:13:25;;;;;;;6.53;2.20;;;34.30;1.00;;;;;;5047665;28;20475;-78
2022/09/09 11:16:05;;;;;;;6.90;2.47;;;35.10;1.00;;;;;;5061640;28;20569;-79
2022/09/09 11:21:32;;;;;;;6.90;1.93;;;35.70;1.00;;;;;;5096669;28;20403;-83
2022/09/09 11:24:11;;;;;;;7.53;3.03;;;35.40;1.00;;;;;;5088212;28;20975;-83
2022/09/09 11:26:46;;;;;;;4.40;1.40;;;36.60;1.00;;;;;;5088760;28;20485;-82
2022/09/09 11:29:39;;;;;;;6.30;1.27;;;36.70;1.00;;;;;;5087368;28;20450;-79
2022/09/09 11:32:26;;;;;;;5.13;1.73;;;36.90;1.00;;;;;;5071131;28;20420;-81
2022/09/09 11:35:08;;;;;;;6.10;1.30;;;37.10;1.00;;;;;;5066820;28;20562;-81
2022/09/09 11:37:54;;;;;;;5.90;1.37;;;36.80;1.00;;;;;;5066900;28;20512;-85
2022/09/09 11:40:35;;;;;;;5.87;1.50;;;37.10;1.00;;;;;;5066789;28;20473;-79
2022/09/09 11:43:06;;;;;;;5.10;2.30;;;37.70;1.00;;;;;;5071466;28;21196;-81
2022/09/09 11:45:36;;;;;;;5.50;1.40;;;38.50;1.00;;;;;;5056374;28;20431;-81
2022/09/09 11:48:28;;;;;;;5.93;2.20;;;39.00;1.00;;;;;;5050191;28;20616;-84
2022/09/09 11:51:17;;;;;;;4.70;1.43;;;39.50;1.00;;;;;;5064748;28;20458;-83
2022/09/09 11:53:57;;;;;;;4.27;1.50;;;39.20;1.00;;;;;;5091879;28;20478;-81
2022/09/09 11:56:30;;;;;;;6.30;2.20;;;35.90;1.00;;;;;;5069026;28;20427;-85
2022/09/09 11:59:27;;;;;;;6.13;1.60;;;34.70;1.00;;;;;;5085393;27;20898;-85
2022/09/09 12:02:27;;;;;;;5.60;1.80;;;33.20;1.00;;;;;;5084055;28;20989;-85
2022/09/09 12:05:08;;;;;;;5.47;1.87;;;30.40;1.00;;;;;;4965843;28;20452;-85
2022/09/09 12:07:47;;;;;;;5.70;1.33;;;29.40;1.00;;;;;;5048476;28;20915;-86
2022/09/09 12:10:38;;;;;;;;;;;;;;;;;;;;;
2022/09/09 12:13:16;;;;;;;5.70;1.80;;;32.10;1.00;;;;;;5048856;28;39172;-86
2022/09/09 12:16:12;;;;;;;6.50;2.00;;;32.30;1.00;;;;;;5078187;28;20453;-87
2022/09/09 12:18:48;;;;;;;7.37;1.60;;;33.70;1.00;;;;;;5041902;28;20467;-86
2022/09/09 12:21:36;;;;;;;4.87;1.50;;;36.30;1.00;;;;;;5071361;28;20432;-86
2022/09/09 12:24:34;;;;;;;5.60;0.90;;;36.90;1.00;;;;;;5083571;28;20651;-84
2022/09/09 12:27:09;;;;;;;5.13;1.50;;;36.70;1.00;;;;;;5078558;28;20424;-83
2022/09/09 12:29:56;;;;;;;5.10;1.47;;;37.10;1.00;;;;;;5057036;28;20466;-84
2022/09/09 12:32:38;;;;;;;5.40;1.67;;;37.10;1.00;;;;;;5050882;28;20455;-85
2022/09/09 12:35:39;;;;;;;5.50;1.40;;;35.80;1.00;;;;;;5067057;28;20455;-84
2022/09/09 12:38:15;;;;;;;5.07;1.60;;;35.00;1.00;;;;;;5060690;28;20453;-86
2022/09/09 12:40:57;;;;;;;4.93;1.10;;;33.90;1.00;;;;;;5070207;28;21386;-83
2022/09/09 12:43:29;;;;;;;6.70;1.80;;;33.50;1.00;;;;;;5082446;28;20522;-82
2022/09/09 12:46:16;;;;;;;5.13;1.37;;;32.60;1.00;;;;;;5096787;28;20463;-80
2022/09/09 12:48:55;;;;;;;6.60;2.40;;;32.00;1.00;;;;;;5092253;28;20429;-85
2022/09/09 12:51:32;;;;;;;6.27;1.87;;;31.20;1.00;;;;;;5092832;28;20438;-85
2022/09/09 12:54:08;;;;;;;4.40;0.93;;;30.00;1.00;;;;;;5099926;28;20458;-84
2022/09/09 12:56:39;;;;;;;4.60;1.00;;;28.80;1.00;;;;;;5081469;28;20418;-82
2022/09/09 12:59:39;;;;;;;8.10;1.80;;;28.50;1.00;;;;;;5070371;28;20425;-84
2022/09/09 13:02:18;;;;;;;8.57;3.27;;;28.40;1.00;;;;;;5052690;28;20447;-84
2022/09/09 13:04:48;;;;;;;6.60;2.60;;;28.00;1.00;;;;;;5056490;28;20423;-80
2022/09/09 13:07:15;;;;;;;8.00;4.80;;;27.70;1.00;;;;;;5067178;28;20463;-81
2022/09/09 13:10:07;;;;;;;7.37;4.47;;;27.50;1.00;;;;;;5043591;28;20900;-82
2022/09/09 13:12:36;;;;;;;7.70;2.50;;;27.50;1.00;;;;;;5069030;28;20583;-80
2022/09/09 13:15:22;;;;;;;11.37;8.37;;;27.40;1.00;;;;;;5074176;28;20431;-80
2022/09/09 13:17:55;;;;;;;7.40;2.50;;;27.20;1.00;;;;;;5076737;28;20472;-80
2022/09/09 13:20:24;;;;;;;5.63;2.10;;;27.10;1.00;;;;;;5082681;28;22577;-80
2022/09/09 13:22:53;;;;;;;7.13;2.27;;;27.10;1.00;;;;;;5088053;28;20809;-82
2022/09/09 13:25:25;;;;;;;6.10;3.03;;;27.30;1.00;;;;;;5088314;28;20900;-79
2022/09/09 13:27:58;;;;;;;7.50;3.57;;;27.30;1.00;;;;;;5095766;28;20957;-81
2022/09/09 13:30:29;;;;;;;8.00;3.57;;;27.20;1.00;;;;;;5064645;28;20451;-80
2022/09/09 13:33:19;;;;;;;6.13;2.13;;;27.10;1.00;;;;;;5093113;28;20467;-80
2022/09/09 13:36:00;;;;;;;6.10;1.97;;;27.00;1.00;;;;;;5093304;28;20911;-81
2022/09/09 13:38:36;;;;;;;6.13;1.37;;;26.90;1.00;;;;;;5095611;28;20450;-82
2022/09/09 13:41:07;;;;;;;6.70;1.93;;;26.70;1.00;;;;;;5095944;28;20486;-82
2022/09/09 13:43:43;;;;;;;5.73;1.70;;;26.70;1.00;;;;;;5064463;28;20625;-84
2022/09/09 13:46:30;;;;;;;5.70;1.50;;;26.70;1.00;;;;;;5088139;28;20427;-83
2022/09/09 13:49:01;;;;;;;5.73;1.53;;;26.60;1.00;;;;;;5091179;28;20496;-86
2022/09/09 13:51:37;;;;;;;5.73;1.90;;;26.40;1.00;;;;;;5068731;28;20458;-83
2022/09/09 13:54:07;;;;;;;7.87;2.10;;;26.20;1.00;;;;;;5062296;28;20470;-83
2022/09/09 14:12:35;;;;;;;8.47;4.63;;;26.50;1.00;;;;;;5827546;22;7122276;-84
2022/09/09 14:17:48;;;;;;;9.70;2.53;;;25.50;1.00;;;;;;6093945;23;20500;-83
2022/09/09 14:20:19;;;;;;;5.90;2.13;;;25.30;1.00;;;;;;6089350;23;20414;-83
2022/09/09 14:22:53;;;;;;;7.33;1.90;;;25.30;1.00;;;;;;6098448;23;20403;-85
2022/09/09 14:25:31;;;;;;;6.27;1.70;;;25.50;1.00;;;;;;6097050;23;20413;-83
2022/09/09 14:28:06;;;;;;;10.13;2.30;;;25.40;1.00;;;;;;6091580;23;20451;-81
2022/09/09 14:30:46;;;;;;;8.60;2.10;;;25.20;1.00;;;;;;6082615;23;20435;-83
2022/09/09 14:33:17;;;;;;;7.70;2.10;;;25.10;1.00;;;;;;6107390;23;20443;-83
2022/09/09 14:35:45;;;;;;;7.30;2.13;;;25.00;1.00;;;;;;6090482;23;20520;-79
2022/09/09 14:38:17;;;;;;;5.43;1.50;;;25.00;1.00;;;;;;6089854;23;20647;-80
2022/09/09 14:40:47;;;;;;;7.93;2.73;;;24.90;1.00;;;;;;6092550;23;20441;-79
2022/09/09 14:43:16;;;;;;;5.63;1.50;;;24.80;1.00;;;;;;6089406;23;20421;-82
2022/09/09 14:45:50;;;;;;;9.07;1.83;;;24.70;1.00;;;;;;6085389;23;20435;-81
2022/09/09 14:48:23;;;;;;;7.00;1.97;;;24.80;1.00;;;;;;6085523;23;20433;-82
2022/09/09 14:50:55;;;;;;;5.90;1.50;;;25.00;1.00;;;;;;6087918;23;20909;-81
2022/09/09 14:53:27;;;;;;;6.17;1.43;;;25.20;1.00;;;;;;6090146;23;20404;-82
2022/09/09 14:56:07;;;;;;;6.30;1.43;;;25.20;1.00;;;;;;6094255;23;20460;-87
2022/09/09 14:58:37;;;;;;;4.87;1.20;;;25.20;1.00;;;;;;6077474;23;20539;-87
2022/09/09 15:01:09;;;;;;;5.43;1.33;;;25.10;1.00;;;;;;6086031;23;20419;-86
2022/09/09 15:03:44;;;;;;;7.30;2.20;;;24.90;1.00;;;;;;6102800;23;20455;-88
2022/09/09 15:06:25;;;;;;;6.37;1.87;;;24.90;1.00;;;;;;6081069;23;20527;-80
2022/09/09 15:08:57;;;;;;;5.97;1.50;;;24.80;1.00;;;;;;6084405;23;20393;-82
2022/09/09 15:11:37;;;;;;;6.10;1.40;;;24.70;1.00;;;;;;6101326;23;20393;-80
2022/09/09 15:14:06;;;;;;;6.20;2.17;;;24.60;1.00;;;;;;6083746;23;20391;-83
2022/09/09 15:16:36;;;;;;;5.43;1.83;;;24.50;1.00;;;;;;6072638;23;20440;-85
2022/09/09 15:19:05;;;;;;;6.23;1.60;;;24.40;1.00;;;;;;6088594;23;20386;-86
2022/09/09 15:24:08;;;;;;;5.67;1.80;;;24.40;1.00;;;;;;6126961;23;20417;-82
2022/09/09 15:26:44;;;;;;;7.93;1.53;;;24.50;1.00;;;;;;6145047;23;20394;-82
2022/09/09 15:29:13;;;;;;;5.80;1.30;;;24.50;1.00;;;;;;6131250;23;21698;-86
2022/09/09 15:31:46;;;;;;;6.03;2.23;;;24.60;1.00;;;;;;6143461;23;20923;-85
2022/09/09 15:34:16;;;;;;;9.67;4.50;;;24.70;1.00;;;;;;6135355;23;20486;-81
2022/09/09 15:36:46;;;;;;;6.40;2.00;;;24.70;1.00;;;;;;6143212;23;20503;-80
2022/09/09 15:39:16;;;;;;;7.90;1.90;;;24.90;1.00;;;;;;6097876;23;20424;-79
2022/09/09 15:41:55;;;;;;;6.50;1.67;;;24.90;1.00;;;;;;6114620;23;20557;-80
2022/09/09 15:44:26;;;;;;;10.97;3.30;;;24.60;1.00;;;;;;6124042;23;20427;-81
2022/09/09 15:46:57;;;;;;;7.33;1.63;;;24.40;1.00;;;;;;6138818;23;20432;-81
2022/09/09 15:49:27;;;;;;;6.60;1.77;;;24.30;1.00;;;;;;6113246;23;20538;-82
2022/09/09 15:51:58;;;;;;;4.83;1.20;;;24.20;1.00;;;;;;6100594;23;20424;-79
2022/09/09 15:54:27;;;;;;;6.53;2.57;;;24.20;1.00;;;;;;6107505;23;20400;-80
2022/09/09 15:57:04;;;;;;;7.10;1.67;;;24.20;1.00;;;;;;6125400;23;20480;-81
2022/09/09 15:59:45;;;;;;;6.70;1.60;;;24.20;1.00;;;;;;6131750;23;20375;-84
2022/09/09 16:02:17;;;;;;;7.97;2.17;;;24.20;1.00;;;;;;6115836;23;20443;-83
2022/09/09 16:04:58;;;;;;;;;;;;;;;;;;;;;
2022/09/09 16:07:25;;;;;;;6.80;1.87;;;24.10;1.00;;;;;;6114321;23;41238;-84
2022/09/09 16:09:56;;;;;;;9.67;2.90;;;24.10;1.00;;;;;;6127947;23;20395;-78
2022/09/09 16:12:26;;;;;;;8.30;2.43;;;24.00;1.00;;;;;;6111206;23;20428;-80
2022/09/09 16:14:57;;;;;;;7.60;3.00;;;23.90;1.00;;;;;;6126407;23;20382;-80